sensor_id;sensor_type;location;lat;lon;timestamp;temperature;humidity
9486;DHT22;4781;48.776;9.200;2023-07-29T00:01:48;17.60;99.90
9486;DHT22;4781;48.776;9.200;2023-07-29T00:04:17;17.70;99.90
9486;DHT22;4781;48.776;9.200;2023-07-29T00:06:46;17.70;99.90
9486;DHT22;4781;48.776;9.200;2023-07-29T00:09:15;17.70;99.90
9486;DHT22;4781;48.776;9.200;2023-07-29T00:11:43;17.70;99.90
9486;DHT22;4781;48.776;9.200;2023-07-29T00:14:12;17.70;99.90
9486;DHT22;4781;48.776;9.200;2023-07-29T00:16:40;17.70;99.90
9486;DHT22;4781;48.776;9.200;2023-07-29T00:19:09;17.70;99.90
9486;DHT22;4781;48.776;9.200;2023-07-29T00:21:37;17.70;99.90
9486;DHT22;4781;48.776;9.200;2023-07-29T00:24:07;17.70;99.90
9486;DHT22;4781;48.776;9.200;2023-07-29T00:26:36;17.70;99.90
9486;DHT22;4781;48.776;9.200;2023-07-29T00:29:04;17.70;99.90
9486;DHT22;4781;48.776;9.200;2023-07-29T00:31:32;17.80;99.90
9486;DHT22;4781;48.776;9.200;2023-07-29T00:34:01;17.80;99.90
9486;DHT22;4781;48.776;9.200;2023-07-29T00:36:29;17.80;99.90
9486;DHT22;4781;48.776;9.200;2023-07-29T00:38:57;17.80;99.90
9486;DHT22;4781;48.776;9.200;2023-07-29T00:41:26;17.70;99.90
9486;DHT22;4781;48.776;9.200;2023-07-29T00:43:54;17.70;99.90
9486;DHT22;4781;48.776;9.200;2023-07-29T00:46:23;17.70;99.90
9486;DHT22;4781;48.776;9.200;2023-07-29T00:48:52;17.70;99.90
9486;DHT22;4781;48.776;9.200;2023-07-29T00:51:21;17.70;99.90
9486;DHT22;4781;48.776;9.200;2023-07-29T00:53:49;17.70;99.90
9486;DHT22;4781;48.776;9.200;2023-07-29T00:56:18;17.70;99.90
9486;DHT22;4781;48.776;9.200;2023-07-29T00:58:46;17.70;99.90
9486;DHT22;4781;48.776;9.200;2023-07-29T01:01:15;17.80;99.90
9486;DHT22;4781;48.776;9.200;2023-07-29T01:03:43;17.80;99.90
9486;DHT22;4781;48.776;9.200;2023-07-29T01:12:21;17.70;99.90
9486;DHT22;4781;48.776;9.200;2023-07-29T01:15:18;17.70;99.90
9486;DHT22;4781;48.776;9.200;2023-07-29T01:17:53;17.70;99.90
9486;DHT22;4781;48.776;9.200;2023-07-29T01:20:25;17.70;99.90
9486;DHT22;4781;48.776;9.200;2023-07-29T01:22:53;17.70;99.90
9486;DHT22;4781;48.776;9.200;2023-07-29T01:25:21;17.60;99.90
9486;DHT22;4781;48.776;9.200;2023-07-29T01:27:51;17.70;99.90
9486;DHT22;4781;48.776;9.200;2023-07-29T01:30:20;17.70;99.90
9486;DHT22;4781;48.776;9.200;2023-07-29T01:33:16;17.70;99.90
9486;DHT22;4781;48.776;9.200;2023-07-29T01:35:52;17.70;99.90
9486;DHT22;4781;48.776;9.200;2023-07-29T01:38:32;17.70;99.90
9486;DHT22;4781;48.776;9.200;2023-07-29T01:41:07;17.70;99.90
9486;DHT22;4781;48.776;9.200;2023-07-29T01:43:37;18.20;99.90
9486;DHT22;4781;48.776;9.200;2023-07-29T01:46:07;17.80;99.90
9486;DHT22;4781;48.776;9.200;2023-07-29T01:48:37;17.80;99.90
9486;DHT22;4781;48.776;9.200;2023-07-29T01:51:06;17.80;99.90
9486;DHT22;4781;48.776;9.200;2023-07-29T01:53:35;17.90;99.90
9486;DHT22;4781;48.776;9.200;2023-07-29T01:56:04;17.90;99.90
9486;DHT22;4781;48.776;9.200;2023-07-29T01:58:32;17.90;99.90
9486;DHT22;4781;48.776;9.200;2023-07-29T02:01:01;17.90;99.90
9486;DHT22;4781;48.776;9.200;2023-07-29T02:03:29;17.90;99.90
9486;DHT22;4781;48.776;9.200;2023-07-29T02:05:57;18.00;99.90
9486;DHT22;4781;48.776;9.200;2023-07-29T02:08:26;18.00;99.90
9486;DHT22;4781;48.776;9.200;2023-07-29T02:10:54;18.00;99.90
9486;DHT22;4781;48.776;9.200;2023-07-29T02:13:23;17.90;99.90
9486;DHT22;4781;48.776;9.200;2023-07-29T02:15:51;18.00;99.90
9486;DHT22;4781;48.776;9.200;2023-07-29T02:18:20;18.00;99.90
9486;DHT22;4781;48.776;9.200;2023-07-29T02:20:48;18.00;99.90
9486;DHT22;4781;48.776;9.200;2023-07-29T02:23:16;17.90;99.90
9486;DHT22;4781;48.776;9.200;2023-07-29T02:25:45;17.90;99.90
9486;DHT22;4781;48.776;9.200;2023-07-29T02:28:13;18.10;99.90
9486;DHT22;4781;48.776;9.200;2023-07-29T02:30:42;17.90;99.90
9486;DHT22;4781;48.776;9.200;2023-07-29T02:33:11;17.80;99.90
9486;DHT22;4781;48.776;9.200;2023-07-29T02:35:40;17.80;99.90
9486;DHT22;4781;48.776;9.200;2023-07-29T02:38:08;17.80;99.90
9486;DHT22;4781;48.776;9.200;2023-07-29T02:40:38;17.80;99.90
9486;DHT22;4781;48.776;9.200;2023-07-29T02:43:06;17.70;99.90
9486;DHT22;4781;48.776;9.200;2023-07-29T02:45:34;17.70;99.90
9486;DHT22;4781;48.776;9.200;2023-07-29T02:48:03;17.70;99.90
9486;DHT22;4781;48.776;9.200;2023-07-29T02:50:31;17.70;99.90
9486;DHT22;4781;48.776;9.200;2023-07-29T02:53:01;17.70;99.90
9486;DHT22;4781;48.776;9.200;2023-07-29T02:55:30;17.70;99.90
9486;DHT22;4781;48.776;9.200;2023-07-29T02:57:58;17.70;99.90
9486;DHT22;4781;48.776;9.200;2023-07-29T03:00:27;17.70;99.90
9486;DHT22;4781;48.776;9.200;2023-07-29T03:02:57;17.70;99.90
9486;DHT22;4781;48.776;9.200;2023-07-29T03:05:27;17.70;99.90
9486;DHT22;4781;48.776;9.200;2023-07-29T03:07:55;17.70;99.90
9486;DHT22;4781;48.776;9.200;2023-07-29T03:10:25;17.70;99.90
9486;DHT22;4781;48.776;9.200;2023-07-29T03:12:56;17.70;99.90
9486;DHT22;4781;48.776;9.200;2023-07-29T03:15:25;17.70;99.90
9486;DHT22;4781;48.776;9.200;2023-07-29T03:17:53;17.70;99.90
9486;DHT22;4781;48.776;9.200;2023-07-29T03:20:22;17.70;99.90
9486;DHT22;4781;48.776;9.200;2023-07-29T03:22:50;17.60;99.90
9486;DHT22;4781;48.776;9.200;2023-07-29T03:25:18;17.60;99.90
9486;DHT22;4781;48.776;9.200;2023-07-29T03:27:47;17.40;99.90
9486;DHT22;4781;48.776;9.200;2023-07-29T03:30:18;17.60;99.90
9486;DHT22;4781;48.776;9.200;2023-07-29T03:32:49;17.60;99.90
9486;DHT22;4781;48.776;9.200;2023-07-29T03:35:19;17.60;99.90
9486;DHT22;4781;48.776;9.200;2023-07-29T03:37:47;17.60;99.90
9486;DHT22;4781;48.776;9.200;2023-07-29T03:40:15;17.60;99.90
9486;DHT22;4781;48.776;9.200;2023-07-29T03:42:44;17.60;99.90
9486;DHT22;4781;48.776;9.200;2023-07-29T03:45:13;17.60;99.90
9486;DHT22;4781;48.776;9.200;2023-07-29T03:47:41;17.60;99.90
9486;DHT22;4781;48.776;9.200;2023-07-29T03:50:10;17.60;99.90
9486;DHT22;4781;48.776;9.200;2023-07-29T03:52:38;17.60;99.90
9486;DHT22;4781;48.776;9.200;2023-07-29T03:55:07;17.70;99.90
9486;DHT22;4781;48.776;9.200;2023-07-29T03:57:35;17.70;99.90
9486;DHT22;4781;48.776;9.200;2023-07-29T04:00:06;17.70;99.90
9486;DHT22;4781;48.776;9.200;2023-07-29T04:02:35;17.70;99.90
9486;DHT22;4781;48.776;9.200;2023-07-29T04:05:04;17.60;99.90
9486;DHT22;4781;48.776;9.200;2023-07-29T04:07:35;17.60;99.90
9486;DHT22;4781;48.776;9.200;2023-07-29T04:10:05;17.60;99.90
9486;DHT22;4781;48.776;9.200;2023-07-29T04:12:34;17.60;99.90
9486;DHT22;4781;48.776;9.200;2023-07-29T04:15:03;17.60;99.90
9486;DHT22;4781;48.776;9.200;2023-07-29T04:17:32;17.60;99.90
9486;DHT22;4781;48.776;9.200;2023-07-29T04:20:00;17.60;99.90
9486;DHT22;4781;48.776;9.200;2023-07-29T04:22:29;17.60;99.90
9486;DHT22;4781;48.776;9.200;2023-07-29T04:24:57;17.60;99.90
9486;DHT22;4781;48.776;9.200;2023-07-29T04:27:26;17.60;99.90
9486;DHT22;4781;48.776;9.200;2023-07-29T04:29:54;17.60;99.90
9486;DHT22;4781;48.776;9.200;2023-07-29T04:32:23;17.60;99.90
9486;DHT22;4781;48.776;9.200;2023-07-29T04:34:52;17.60;99.90
9486;DHT22;4781;48.776;9.200;2023-07-29T04:37:20;17.60;99.90
9486;DHT22;4781;48.776;9.200;2023-07-29T04:39:49;17.60;99.90
9486;DHT22;4781;48.776;9.200;2023-07-29T04:42:17;17.60;99.90
9486;DHT22;4781;48.776;9.200;2023-07-29T04:44:46;17.60;99.90
9486;DHT22;4781;48.776;9.200;2023-07-29T04:47:14;17.60;99.90
9486;DHT22;4781;48.776;9.200;2023-07-29T04:49:42;17.60;99.90
9486;DHT22;4781;48.776;9.200;2023-07-29T04:52:11;17.60;99.90
9486;DHT22;4781;48.776;9.200;2023-07-29T04:54:39;17.60;99.90
9486;DHT22;4781;48.776;9.200;2023-07-29T04:57:08;17.50;99.90
9486;DHT22;4781;48.776;9.200;2023-07-29T04:59:37;17.50;99.90
9486;DHT22;4781;48.776;9.200;2023-07-29T05:02:05;17.50;99.90
9486;DHT22;4781;48.776;9.200;2023-07-29T05:04:33;17.50;99.90
9486;DHT22;4781;48.776;9.200;2023-07-29T05:07:02;17.50;99.90
9486;DHT22;4781;48.776;9.200;2023-07-29T05:09:30;17.50;99.90
9486;DHT22;4781;48.776;9.200;2023-07-29T05:11:59;17.50;99.90
9486;DHT22;4781;48.776;9.200;2023-07-29T05:14:27;17.50;99.90
9486;DHT22;4781;48.776;9.200;2023-07-29T05:16:56;17.50;99.90
9486;DHT22;4781;48.776;9.200;2023-07-29T05:19:24;17.50;99.90
9486;DHT22;4781;48.776;9.200;2023-07-29T05:21:52;17.50;99.90
9486;DHT22;4781;48.776;9.200;2023-07-29T05:24:21;17.60;99.90
9486;DHT22;4781;48.776;9.200;2023-07-29T05:26:49;17.60;99.90
9486;DHT22;4781;48.776;9.200;2023-07-29T05:29:18;17.60;99.90
9486;DHT22;4781;48.776;9.200;2023-07-29T05:31:46;17.70;99.90
9486;DHT22;4781;48.776;9.200;2023-07-29T05:34:14;17.70;99.90
9486;DHT22;4781;48.776;9.200;2023-07-29T05:36:43;17.70;99.90
9486;DHT22;4781;48.776;9.200;2023-07-29T05:39:11;17.70;99.90
9486;DHT22;4781;48.776;9.200;2023-07-29T05:41:40;17.70;99.90
9486;DHT22;4781;48.776;9.200;2023-07-29T05:44:08;17.70;99.90
9486;DHT22;4781;48.776;9.200;2023-07-29T05:46:37;17.80;99.90
9486;DHT22;4781;48.776;9.200;2023-07-29T05:49:05;17.80;99.90
9486;DHT22;4781;48.776;9.200;2023-07-29T05:51:33;17.80;99.90
9486;DHT22;4781;48.776;9.200;2023-07-29T05:54:02;17.90;99.90
9486;DHT22;4781;48.776;9.200;2023-07-29T05:56:30;17.90;99.90
9486;DHT22;4781;48.776;9.200;2023-07-29T05:58:58;17.90;99.90
9486;DHT22;4781;48.776;9.200;2023-07-29T06:01:27;18.00;99.90
9486;DHT22;4781;48.776;9.200;2023-07-29T06:03:55;18.10;99.90
9486;DHT22;4781;48.776;9.200;2023-07-29T06:06:24;18.20;99.90
9486;DHT22;4781;48.776;9.200;2023-07-29T06:08:55;18.20;99.90
9486;DHT22;4781;48.776;9.200;2023-07-29T06:11:23;18.30;99.90
9486;DHT22;4781;48.776;9.200;2023-07-29T06:13:51;18.40;99.90
9486;DHT22;4781;48.776;9.200;2023-07-29T06:16:20;18.50;99.90
9486;DHT22;4781;48.776;9.200;2023-07-29T06:18:48;18.60;99.90
9486;DHT22;4781;48.776;9.200;2023-07-29T06:21:18;18.60;99.90
9486;DHT22;4781;48.776;9.200;2023-07-29T06:23:47;18.70;99.90
9486;DHT22;4781;48.776;9.200;2023-07-29T06:26:15;18.80;99.90
9486;DHT22;4781;48.776;9.200;2023-07-29T06:28:43;18.90;99.90
9486;DHT22;4781;48.776;9.200;2023-07-29T06:31:12;19.00;99.90
9486;DHT22;4781;48.776;9.200;2023-07-29T06:33:41;19.00;99.90
9486;DHT22;4781;48.776;9.200;2023-07-29T06:36:09;19.10;99.90
9486;DHT22;4781;48.776;9.200;2023-07-29T06:38:38;19.10;99.90
9486;DHT22;4781;48.776;9.200;2023-07-29T06:41:07;19.20;99.90
9486;DHT22;4781;48.776;9.200;2023-07-29T06:43:36;19.20;99.90
9486;DHT22;4781;48.776;9.200;2023-07-29T06:46:04;19.20;99.90
9486;DHT22;4781;48.776;9.200;2023-07-29T06:48:32;19.20;99.90
9486;DHT22;4781;48.776;9.200;2023-07-29T06:51:01;19.20;99.90
9486;DHT22;4781;48.776;9.200;2023-07-29T06:53:30;19.20;99.90
9486;DHT22;4781;48.776;9.200;2023-07-29T06:55:58;19.10;99.90
9486;DHT22;4781;48.776;9.200;2023-07-29T06:58:26;19.20;99.90
9486;DHT22;4781;48.776;9.200;2023-07-29T07:00:55;19.10;99.90
9486;DHT22;4781;48.776;9.200;2023-07-29T07:03:23;19.10;99.90
9486;DHT22;4781;48.776;9.200;2023-07-29T07:05:52;19.00;99.90
9486;DHT22;4781;48.776;9.200;2023-07-29T07:08:20;18.90;99.90
9486;DHT22;4781;48.776;9.200;2023-07-29T07:10:48;18.80;99.90
9486;DHT22;4781;48.776;9.200;2023-07-29T07:13:17;18.80;99.90
9486;DHT22;4781;48.776;9.200;2023-07-29T07:15:45;18.70;99.90
9486;DHT22;4781;48.776;9.200;2023-07-29T07:18:14;18.60;99.90
9486;DHT22;4781;48.776;9.200;2023-07-29T07:20:42;18.60;99.90
9486;DHT22;4781;48.776;9.200;2023-07-29T07:23:11;18.60;99.90
9486;DHT22;4781;48.776;9.200;2023-07-29T07:25:39;18.60;99.90
9486;DHT22;4781;48.776;9.200;2023-07-29T07:28:09;18.50;99.90
9486;DHT22;4781;48.776;9.200;2023-07-29T07:30:41;18.50;99.90
9486;DHT22;4781;48.776;9.200;2023-07-29T07:33:10;18.50;99.90
9486;DHT22;4781;48.776;9.200;2023-07-29T07:35:38;18.50;99.90
9486;DHT22;4781;48.776;9.200;2023-07-29T07:38:08;18.50;99.90
9486;DHT22;4781;48.776;9.200;2023-07-29T07:40:37;18.50;99.90
9486;DHT22;4781;48.776;9.200;2023-07-29T07:43:05;18.50;99.90
9486;DHT22;4781;48.776;9.200;2023-07-29T07:45:33;18.50;99.90
9486;DHT22;4781;48.776;9.200;2023-07-29T07:48:02;18.50;99.90
9486;DHT22;4781;48.776;9.200;2023-07-29T07:50:31;18.50;99.90
9486;DHT22;4781;48.776;9.200;2023-07-29T07:52:59;18.60;99.90
9486;DHT22;4781;48.776;9.200;2023-07-29T07:55:27;18.60;99.90
9486;DHT22;4781;48.776;9.200;2023-07-29T07:57:56;18.60;99.90
9486;DHT22;4781;48.776;9.200;2023-07-29T08:00:24;18.60;99.90
9486;DHT22;4781;48.776;9.200;2023-07-29T08:02:52;18.60;99.90
9486;DHT22;4781;48.776;9.200;2023-07-29T08:05:21;18.70;99.90
9486;DHT22;4781;48.776;9.200;2023-07-29T08:07:49;18.80;99.90
9486;DHT22;4781;48.776;9.200;2023-07-29T08:10:18;18.80;99.90
9486;DHT22;4781;48.776;9.200;2023-07-29T08:12:46;18.90;99.90
9486;DHT22;4781;48.776;9.200;2023-07-29T08:15:14;18.90;99.90
9486;DHT22;4781;48.776;9.200;2023-07-29T08:17:43;18.90;99.90
9486;DHT22;4781;48.776;9.200;2023-07-29T08:20:12;19.00;99.90
9486;DHT22;4781;48.776;9.200;2023-07-29T08:22:41;19.10;99.90
9486;DHT22;4781;48.776;9.200;2023-07-29T08:25:09;19.20;99.90
9486;DHT22;4781;48.776;9.200;2023-07-29T08:27:38;19.30;99.90
9486;DHT22;4781;48.776;9.200;2023-07-29T08:30:07;19.30;99.90
9486;DHT22;4781;48.776;9.200;2023-07-29T08:32:36;19.30;99.90
9486;DHT22;4781;48.776;9.200;2023-07-29T08:35:04;19.30;99.90
9486;DHT22;4781;48.776;9.200;2023-07-29T08:37:33;19.30;99.90
9486;DHT22;4781;48.776;9.200;2023-07-29T08:40:01;19.40;99.90
9486;DHT22;4781;48.776;9.200;2023-07-29T08:42:31;19.40;99.90
9486;DHT22;4781;48.776;9.200;2023-07-29T08:45:06;19.50;99.90
9486;DHT22;4781;48.776;9.200;2023-07-29T08:47:38;19.50;99.90
9486;DHT22;4781;48.776;9.200;2023-07-29T08:50:07;19.60;99.90
9486;DHT22;4781;48.776;9.200;2023-07-29T08:52:36;19.60;99.90
9486;DHT22;4781;48.776;9.200;2023-07-29T08:55:05;19.80;99.90
9486;DHT22;4781;48.776;9.200;2023-07-29T08:57:34;20.10;99.90
9486;DHT22;4781;48.776;9.200;2023-07-29T09:00:04;20.30;99.90
9486;DHT22;4781;48.776;9.200;2023-07-29T09:02:33;20.40;99.90
9486;DHT22;4781;48.776;9.200;2023-07-29T09:05:02;20.60;99.90
9486;DHT22;4781;48.776;9.200;2023-07-29T09:07:33;20.70;99.90
9486;DHT22;4781;48.776;9.200;2023-07-29T09:10:02;20.90;99.90
9486;DHT22;4781;48.776;9.200;2023-07-29T09:12:30;21.20;99.90
9486;DHT22;4781;48.776;9.200;2023-07-29T09:14:59;21.20;99.90
9486;DHT22;4781;48.776;9.200;2023-07-29T09:17:34;21.20;99.90
9486;DHT22;4781;48.776;9.200;2023-07-29T09:20:00;21.10;99.90
9486;DHT22;4781;48.776;9.200;2023-07-29T09:22:29;21.10;99.90
9486;DHT22;4781;48.776;9.200;2023-07-29T09:24:58;21.20;99.90
9486;DHT22;4781;48.776;9.200;2023-07-29T09:27:27;21.30;99.90
9486;DHT22;4781;48.776;9.200;2023-07-29T09:29:58;21.40;99.90
9486;DHT22;4781;48.776;9.200;2023-07-29T09:32:26;21.50;99.90
9486;DHT22;4781;48.776;9.200;2023-07-29T09:34:54;21.70;99.90
9486;DHT22;4781;48.776;9.200;2023-07-29T09:37:23;21.60;99.90
9486;DHT22;4781;48.776;9.200;2023-07-29T09:39:52;21.60;99.90
9486;DHT22;4781;48.776;9.200;2023-07-29T09:42:22;21.80;99.90
9486;DHT22;4781;48.776;9.200;2023-07-29T09:44:51;21.90;99.90
9486;DHT22;4781;48.776;9.200;2023-07-29T09:47:24;21.90;99.90
9486;DHT22;4781;48.776;9.200;2023-07-29T09:49:53;21.90;99.90
9486;DHT22;4781;48.776;9.200;2023-07-29T09:52:22;21.90;99.90
9486;DHT22;4781;48.776;9.200;2023-07-29T09:54:51;21.90;99.90
9486;DHT22;4781;48.776;9.200;2023-07-29T09:57:20;22.00;99.90
9486;DHT22;4781;48.776;9.200;2023-07-29T09:59:56;22.00;99.90
9486;DHT22;4781;48.776;9.200;2023-07-29T10:02:24;22.10;99.90
9486;DHT22;4781;48.776;9.200;2023-07-29T10:04:56;22.10;99.90
9486;DHT22;4781;48.776;9.200;2023-07-29T10:07:26;22.40;99.90
9486;DHT22;4781;48.776;9.200;2023-07-29T10:09:55;22.60;99.90
9486;DHT22;4781;48.776;9.200;2023-07-29T10:12:24;22.80;99.90
9486;DHT22;4781;48.776;9.200;2023-07-29T10:14:53;23.10;99.90
9486;DHT22;4781;48.776;9.200;2023-07-29T10:17:24;23.10;99.90
9486;DHT22;4781;48.776;9.200;2023-07-29T10:19:55;23.00;99.90
9486;DHT22;4781;48.776;9.200;2023-07-29T10:22:36;23.20;99.90
9486;DHT22;4781;48.776;9.200;2023-07-29T10:25:17;23.10;99.90
9486;DHT22;4781;48.776;9.200;2023-07-29T10:27:53;23.00;99.90
9486;DHT22;4781;48.776;9.200;2023-07-29T10:30:31;23.00;99.90
9486;DHT22;4781;48.776;9.200;2023-07-29T10:33:02;23.30;99.90
9486;DHT22;4781;48.776;9.200;2023-07-29T10:35:33;23.40;99.90
9486;DHT22;4781;48.776;9.200;2023-07-29T10:38:03;23.40;99.90
9486;DHT22;4781;48.776;9.200;2023-07-29T10:49:05;23.30;99.90
9486;DHT22;4781;48.776;9.200;2023-07-29T10:51:37;23.30;99.90
9486;DHT22;4781;48.776;9.200;2023-07-29T10:54:13;23.30;99.90
9486;DHT22;4781;48.776;9.200;2023-07-29T10:56:47;23.30;99.90
9486;DHT22;4781;48.776;9.200;2023-07-29T10:59:33;23.30;99.90
9486;DHT22;4781;48.776;9.200;2023-07-29T11:02:02;23.60;99.90
9486;DHT22;4781;48.776;9.200;2023-07-29T11:04:45;23.70;99.90
9486;DHT22;4781;48.776;9.200;2023-07-29T11:10:02;23.90;99.90
9486;DHT22;4781;48.776;9.200;2023-07-29T11:15:26;24.00;99.90
9486;DHT22;4781;48.776;9.200;2023-07-29T11:17:59;24.20;99.90
9486;DHT22;4781;48.776;9.200;2023-07-29T11:20:30;24.20;99.90
9486;DHT22;4781;48.776;9.200;2023-07-29T11:23:02;24.40;99.90
9486;DHT22;4781;48.776;9.200;2023-07-29T11:25:31;24.40;99.90
9486;DHT22;4781;48.776;9.200;2023-07-29T11:28:03;24.40;99.90
9486;DHT22;4781;48.776;9.200;2023-07-29T11:30:31;24.40;99.90
9486;DHT22;4781;48.776;9.200;2023-07-29T11:33:00;24.30;99.90
9486;DHT22;4781;48.776;9.200;2023-07-29T11:35:28;24.20;99.90
9486;DHT22;4781;48.776;9.200;2023-07-29T11:37:57;24.20;99.90
9486;DHT22;4781;48.776;9.200;2023-07-29T11:40:25;24.00;99.90
9486;DHT22;4781;48.776;9.200;2023-07-29T11:42:54;24.00;99.90
9486;DHT22;4781;48.776;9.200;2023-07-29T11:45:23;24.00;99.90
9486;DHT22;4781;48.776;9.200;2023-07-29T11:47:51;24.10;99.90
9486;DHT22;4781;48.776;9.200;2023-07-29T11:50:19;24.00;99.90
9486;DHT22;4781;48.776;9.200;2023-07-29T11:52:48;24.00;99.90
9486;DHT22;4781;48.776;9.200;2023-07-29T11:55:17;24.10;99.90
9486;DHT22;4781;48.776;9.200;2023-07-29T11:57:48;24.20;99.90
9486;DHT22;4781;48.776;9.200;2023-07-29T12:00:18;24.30;99.90
9486;DHT22;4781;48.776;9.200;2023-07-29T12:02:49;24.40;99.90
9486;DHT22;4781;48.776;9.200;2023-07-29T12:05:19;24.60;99.90
9486;DHT22;4781;48.776;9.200;2023-07-29T12:07:48;24.80;99.90
9486;DHT22;4781;48.776;9.200;2023-07-29T12:10:17;24.80;99.90
9486;DHT22;4781;48.776;9.200;2023-07-29T12:12:49;24.60;99.90
9486;DHT22;4781;48.776;9.200;2023-07-29T12:15:29;24.60;99.90
9486;DHT22;4781;48.776;9.200;2023-07-29T12:17:56;24.90;99.90
9486;DHT22;4781;48.776;9.200;2023-07-29T12:20:26;24.80;99.90
9486;DHT22;4781;48.776;9.200;2023-07-29T12:22:56;24.90;99.90
9486;DHT22;4781;48.776;9.200;2023-07-29T12:25:28;24.80;99.90
9486;DHT22;4781;48.776;9.200;2023-07-29T12:28:01;24.80;99.90
9486;DHT22;4781;48.776;9.200;2023-07-29T12:30:33;24.80;99.90
9486;DHT22;4781;48.776;9.200;2023-07-29T12:33:01;24.80;99.90
9486;DHT22;4781;48.776;9.200;2023-07-29T12:35:37;25.00;99.90
9486;DHT22;4781;48.776;9.200;2023-07-29T12:38:06;25.20;99.90
9486;DHT22;4781;48.776;9.200;2023-07-29T12:40:37;25.40;99.90
9486;DHT22;4781;48.776;9.200;2023-07-29T12:43:07;25.50;99.90
9486;DHT22;4781;48.776;9.200;2023-07-29T12:45:38;25.50;99.90
9486;DHT22;4781;48.776;9.200;2023-07-29T12:48:08;25.50;99.90
9486;DHT22;4781;48.776;9.200;2023-07-29T12:50:37;25.50;99.90
9486;DHT22;4781;48.776;9.200;2023-07-29T12:53:08;25.30;99.90
9486;DHT22;4781;48.776;9.200;2023-07-29T12:55:39;25.40;99.90
9486;DHT22;4781;48.776;9.200;2023-07-29T12:58:07;25.40;99.90
9486;DHT22;4781;48.776;9.200;2023-07-29T13:00:36;25.40;99.90
9486;DHT22;4781;48.776;9.200;2023-07-29T13:03:05;25.40;99.90
9486;DHT22;4781;48.776;9.200;2023-07-29T13:05:33;25.30;99.90
9486;DHT22;4781;48.776;9.200;2023-07-29T13:08:01;25.30;99.90
9486;DHT22;4781;48.776;9.200;2023-07-29T13:10:30;25.30;99.90
9486;DHT22;4781;48.776;9.200;2023-07-29T13:12:58;25.40;99.90
9486;DHT22;4781;48.776;9.200;2023-07-29T13:15:27;25.50;99.90
9486;DHT22;4781;48.776;9.200;2023-07-29T13:17:55;25.50;99.90
9486;DHT22;4781;48.776;9.200;2023-07-29T13:20:23;25.60;99.90
9486;DHT22;4781;48.776;9.200;2023-07-29T13:22:52;25.60;99.90
9486;DHT22;4781;48.776;9.200;2023-07-29T13:25:20;25.40;99.90
9486;DHT22;4781;48.776;9.200;2023-07-29T13:27:48;25.40;99.90
9486;DHT22;4781;48.776;9.200;2023-07-29T13:30:17;25.20;99.90
9486;DHT22;4781;48.776;9.200;2023-07-29T13:32:45;25.20;99.90
9486;DHT22;4781;48.776;9.200;2023-07-29T13:35:14;25.30;99.90
9486;DHT22;4781;48.776;9.200;2023-07-29T13:37:42;25.30;99.90
9486;DHT22;4781;48.776;9.200;2023-07-29T13:40:10;25.40;99.90
9486;DHT22;4781;48.776;9.200;2023-07-29T13:42:39;25.40;99.90
9486;DHT22;4781;48.776;9.200;2023-07-29T13:45:08;25.40;99.90
9486;DHT22;4781;48.776;9.200;2023-07-29T13:47:37;25.40;99.90
9486;DHT22;4781;48.776;9.200;2023-07-29T13:50:06;25.40;99.90
9486;DHT22;4781;48.776;9.200;2023-07-29T13:52:36;25.40;99.90
9486;DHT22;4781;48.776;9.200;2023-07-29T13:55:05;25.30;99.90
9486;DHT22;4781;48.776;9.200;2023-07-29T13:57:34;25.30;99.90
9486;DHT22;4781;48.776;9.200;2023-07-29T14:00:03;25.30;99.90
9486;DHT22;4781;48.776;9.200;2023-07-29T14:02:32;25.20;99.90
9486;DHT22;4781;48.776;9.200;2023-07-29T14:05:00;25.10;99.90
9486;DHT22;4781;48.776;9.200;2023-07-29T14:07:28;25.00;99.90
9486;DHT22;4781;48.776;9.200;2023-07-29T14:09:57;25.10;99.90
9486;DHT22;4781;48.776;9.200;2023-07-29T14:12:25;25.10;99.90
9486;DHT22;4781;48.776;9.200;2023-07-29T14:14:53;25.20;99.90
9486;DHT22;4781;48.776;9.200;2023-07-29T14:17:22;25.20;99.90
9486;DHT22;4781;48.776;9.200;2023-07-29T14:19:50;25.30;99.90
9486;DHT22;4781;48.776;9.200;2023-07-29T14:22:19;25.30;99.90
9486;DHT22;4781;48.776;9.200;2023-07-29T14:24:47;25.30;99.90
9486;DHT22;4781;48.776;9.200;2023-07-29T14:27:15;25.40;99.90
9486;DHT22;4781;48.776;9.200;2023-07-29T14:29:44;25.40;99.90
9486;DHT22;4781;48.776;9.200;2023-07-29T14:32:12;25.30;99.90
9486;DHT22;4781;48.776;9.200;2023-07-29T14:34:41;25.20;99.90
9486;DHT22;4781;48.776;9.200;2023-07-29T14:37:09;25.30;99.90
9486;DHT22;4781;48.776;9.200;2023-07-29T14:39:37;25.20;99.90
9486;DHT22;4781;48.776;9.200;2023-07-29T14:42:06;25.20;99.90
9486;DHT22;4781;48.776;9.200;2023-07-29T14:44:34;25.00;99.90
9486;DHT22;4781;48.776;9.200;2023-07-29T14:47:03;24.90;99.90
9486;DHT22;4781;48.776;9.200;2023-07-29T14:49:31;24.90;99.90
9486;DHT22;4781;48.776;9.200;2023-07-29T14:52:00;24.80;99.90
9486;DHT22;4781;48.776;9.200;2023-07-29T14:54:28;24.90;99.90
9486;DHT22;4781;48.776;9.200;2023-07-29T14:56:56;24.90;99.90
9486;DHT22;4781;48.776;9.200;2023-07-29T14:59:25;24.80;99.90
9486;DHT22;4781;48.776;9.200;2023-07-29T15:01:53;24.80;99.90
9486;DHT22;4781;48.776;9.200;2023-07-29T15:04:22;24.70;99.90
9486;DHT22;4781;48.776;9.200;2023-07-29T15:06:50;24.90;99.90
9486;DHT22;4781;48.776;9.200;2023-07-29T15:09:18;25.00;99.90
9486;DHT22;4781;48.776;9.200;2023-07-29T15:11:47;25.00;99.90
9486;DHT22;4781;48.776;9.200;2023-07-29T15:14:15;25.00;99.90
9486;DHT22;4781;48.776;9.200;2023-07-29T15:16:43;25.10;99.90
9486;DHT22;4781;48.776;9.200;2023-07-29T15:19:12;25.20;99.90
9486;DHT22;4781;48.776;9.200;2023-07-29T15:21:40;25.20;99.90
9486;DHT22;4781;48.776;9.200;2023-07-29T15:24:09;25.10;99.90
9486;DHT22;4781;48.776;9.200;2023-07-29T15:26:38;25.00;99.90
9486;DHT22;4781;48.776;9.200;2023-07-29T15:29:07;25.00;99.90
9486;DHT22;4781;48.776;9.200;2023-07-29T15:31:36;25.10;99.90
9486;DHT22;4781;48.776;9.200;2023-07-29T15:34:04;25.20;99.90
9486;DHT22;4781;48.776;9.200;2023-07-29T15:36:33;25.20;99.90
9486;DHT22;4781;48.776;9.200;2023-07-29T15:39:01;25.20;99.90
9486;DHT22;4781;48.776;9.200;2023-07-29T15:41:32;25.30;99.90
9486;DHT22;4781;48.776;9.200;2023-07-29T15:44:00;25.50;99.90
9486;DHT22;4781;48.776;9.200;2023-07-29T15:46:29;25.50;99.90
9486;DHT22;4781;48.776;9.200;2023-07-29T15:48:57;25.50;99.90
9486;DHT22;4781;48.776;9.200;2023-07-29T15:51:26;25.50;99.90
9486;DHT22;4781;48.776;9.200;2023-07-29T15:53:55;25.70;99.90
9486;DHT22;4781;48.776;9.200;2023-07-29T15:56:23;25.70;99.90
9486;DHT22;4781;48.776;9.200;2023-07-29T15:58:52;25.70;99.90
9486;DHT22;4781;48.776;9.200;2023-07-29T16:01:22;25.80;99.90
9486;DHT22;4781;48.776;9.200;2023-07-29T16:03:50;25.80;99.90
9486;DHT22;4781;48.776;9.200;2023-07-29T16:06:18;25.80;99.90
9486;DHT22;4781;48.776;9.200;2023-07-29T16:08:47;25.80;99.90
9486;DHT22;4781;48.776;9.200;2023-07-29T16:11:15;25.80;99.90
9486;DHT22;4781;48.776;9.200;2023-07-29T16:13:43;25.80;99.90
9486;DHT22;4781;48.776;9.200;2023-07-29T16:16:12;25.80;99.90
9486;DHT22;4781;48.776;9.200;2023-07-29T16:18:40;25.80;99.90
9486;DHT22;4781;48.776;9.200;2023-07-29T16:21:09;25.70;99.90
9486;DHT22;4781;48.776;9.200;2023-07-29T16:23:37;25.60;99.90
9486;DHT22;4781;48.776;9.200;2023-07-29T16:26:05;25.60;99.90
9486;DHT22;4781;48.776;9.200;2023-07-29T16:28:34;25.50;99.90
9486;DHT22;4781;48.776;9.200;2023-07-29T16:31:02;25.50;99.90
9486;DHT22;4781;48.776;9.200;2023-07-29T16:33:31;25.50;99.90
9486;DHT22;4781;48.776;9.200;2023-07-29T16:36:00;25.50;99.90